createdAt,value
2022-09-23T00:01:02.047Z,10
2022-09-23T00:02:19.051Z,11
2022-09-23T00:03:36.064Z,11
2022-09-23T00:04:53.048Z,11
2022-09-23T00:06:10.006Z,13
2022-09-23T00:07:27.011Z,12
2022-09-23T00:08:44.053Z,12
2022-09-23T00:10:01.117Z,11
2022-09-23T00:11:18.022Z,11
2022-09-23T00:12:35.029Z,9
2022-09-23T00:13:52.036Z,9
2022-09-23T00:15:09.077Z,8
2022-09-23T00:16:26.103Z,8
2022-09-23T00:17:43.496Z,8
2022-09-23T00:19:01.130Z,9
2022-09-23T00:20:18.035Z,9
2022-09-23T00:21:35.018Z,9
2022-09-23T00:22:52.037Z,9
2022-09-23T00:24:09.134Z,9
2022-09-23T00:25:26.049Z,8
2022-09-23T00:26:43.081Z,8
2022-09-23T00:28:00.056Z,5
2022-09-23T00:29:17.112Z,5
2022-09-23T00:30:34.098Z,4
2022-09-23T00:31:51.058Z,4
2022-09-23T00:33:08.086Z,4
2022-09-23T00:34:25.036Z,5
2022-09-23T00:35:42.068Z,6
2022-09-23T00:36:59.049Z,6
2022-09-23T00:38:16.054Z,6
2022-09-23T00:39:33.127Z,9
2022-09-23T00:40:50.156Z,6
2022-09-23T00:42:07.091Z,5
2022-09-23T00:43:24.070Z,4
2022-09-23T00:44:41.137Z,5
2022-09-23T00:45:58.160Z,5
2022-09-23T00:47:15.134Z,4
2022-09-23T00:48:32.074Z,4
2022-09-23T00:49:49.080Z,4
2022-09-23T00:51:06.143Z,4
2022-09-23T00:52:23.116Z,4
2022-09-23T00:53:40.074Z,4
2022-09-23T00:54:57.082Z,3
2022-09-23T00:56:14.086Z,3
2022-09-23T00:57:31.114Z,4
2022-09-23T00:58:48.087Z,5
2022-09-23T01:00:05.238Z,5
2022-09-23T01:01:22.245Z,5
2022-09-23T01:02:39.195Z,6
2022-09-23T01:03:56.118Z,8
2022-09-23T01:05:13.155Z,5
2022-09-23T01:06:30.119Z,5
2022-09-23T01:07:47.120Z,5
2022-09-23T01:09:04.107Z,5
2022-09-23T01:10:21.147Z,4
2022-09-23T01:11:38.099Z,3
2022-09-23T01:12:55.107Z,3
2022-09-23T01:14:12.122Z,3
2022-09-23T01:15:29.240Z,3
2022-09-23T01:16:46.157Z,3
2022-09-23T01:18:03.132Z,3
2022-09-23T01:19:20.123Z,3
2022-09-23T01:20:37.185Z,2
2022-09-23T01:21:54.119Z,2
2022-09-23T01:23:11.165Z,2
2022-09-23T01:24:28.125Z,2
2022-09-23T01:25:45.192Z,1
2022-09-23T01:27:02.140Z,2
2022-09-23T01:28:19.114Z,2
2022-09-23T01:29:36.173Z,1
2022-09-23T01:30:53.207Z,0
2022-09-23T01:32:10.133Z,0
2022-09-23T01:33:27.149Z,0
2022-09-23T01:34:44.135Z,0
2022-09-23T01:36:01.263Z,1
2022-09-23T01:37:18.133Z,1
2022-09-23T01:38:35.150Z,2
2022-09-23T01:39:52.150Z,2
2022-09-23T01:41:09.162Z,2
2022-09-23T01:42:26.152Z,1
2022-09-23T01:43:43.144Z,0
2022-09-23T01:45:00.218Z,0
2022-09-23T01:46:17.171Z,1
2022-09-23T01:47:34.153Z,0
2022-09-23T01:48:51.190Z,0
2022-09-23T01:50:08.207Z,1
2022-09-23T01:51:25.169Z,1
2022-09-23T01:52:42.160Z,1
2022-09-23T01:53:59.172Z,1
2022-09-23T01:55:16.789Z,2
2022-09-23T01:56:34.170Z,1
2022-09-23T01:57:51.184Z,1
2022-09-23T01:59:08.180Z,1
2022-09-23T02:00:25.211Z,2
2022-09-23T02:01:42.342Z,1
2022-09-23T02:02:59.174Z,1
2022-09-23T02:04:16.290Z,0
2022-09-23T02:05:33.183Z,1
2022-09-23T02:06:50.192Z,1
2022-09-23T02:08:07.735Z,1
2022-09-23T02:09:25.192Z,0
2022-09-23T02:10:42.181Z,0
2022-09-23T02:11:59.184Z,1
2022-09-23T02:13:16.213Z,0
2022-09-23T02:14:33.212Z,0
2022-09-23T02:15:50.200Z,1
2022-09-23T02:17:07.259Z,1
2022-09-23T02:18:24.255Z,2
2022-09-23T02:19:41.459Z,2
2022-09-23T02:20:58.215Z,2
2022-09-23T02:22:15.220Z,4
2022-09-23T02:23:32.233Z,4
2022-09-23T02:24:49.245Z,4
2022-09-23T02:26:06.247Z,5
2022-09-23T02:27:23.236Z,5
2022-09-23T02:28:40.275Z,5
2022-09-23T02:29:57.235Z,4
2022-09-23T02:31:14.253Z,4
2022-09-23T02:32:31.284Z,4
2022-09-23T02:33:48.248Z,4
2022-09-23T02:35:05.266Z,5
2022-09-23T02:36:22.239Z,4
2022-09-23T02:37:39.229Z,4
2022-09-23T02:38:56.260Z,4
2022-09-23T02:40:13.328Z,5
2022-09-23T02:41:30.216Z,4
2022-09-23T02:42:47.216Z,3
2022-09-23T02:44:04.246Z,3
2022-09-23T02:45:21.270Z,3
2022-09-23T02:46:38.239Z,2
2022-09-23T02:47:55.276Z,2
2022-09-23T02:49:12.285Z,1
2022-09-23T02:50:29.316Z,1
2022-09-23T02:51:46.288Z,1
2022-09-23T02:53:03.263Z,1
2022-09-23T02:54:20.280Z,0
2022-09-23T02:55:37.269Z,0
2022-09-23T03:00:54.365Z,4
2022-09-23T03:02:11.341Z,3
2022-09-23T03:03:28.300Z,4
2022-09-23T03:04:45.261Z,3
2022-09-23T03:06:02.285Z,3
2022-09-23T03:07:19.284Z,2
2022-09-23T03:08:36.266Z,2
2022-09-23T03:09:53.303Z,2
2022-09-23T03:11:10.268Z,2
2022-09-23T03:12:27.312Z,3
2022-09-23T03:13:44.273Z,3
2022-09-23T03:15:01.304Z,3
2022-09-23T03:16:18.343Z,3
2022-09-23T03:17:35.389Z,4
2022-09-23T03:18:52.298Z,3
2022-09-23T03:20:09.282Z,4
2022-09-23T03:21:26.299Z,3
2022-09-23T03:22:43.339Z,3
2022-09-23T03:24:00.293Z,2
2022-09-23T03:25:17.285Z,2
2022-09-23T03:26:34.299Z,2
2022-09-23T03:27:51.317Z,2
2022-09-23T03:29:08.352Z,2
2022-09-23T03:30:25.343Z,2
2022-09-23T03:31:42.537Z,2
2022-09-23T03:32:59.294Z,2
2022-09-23T03:34:16.334Z,1
2022-09-23T03:35:33.358Z,1
2022-09-23T03:36:50.308Z,2
2022-09-23T03:38:07.326Z,2
2022-09-23T03:39:24.315Z,1
2022-09-23T03:40:41.473Z,1
2022-09-23T03:41:58.313Z,2
2022-09-23T03:43:15.337Z,1
2022-09-23T03:44:32.330Z,2
2022-09-23T03:45:49.370Z,2
2022-09-23T03:47:06.314Z,1
2022-09-23T03:48:23.317Z,1
2022-09-23T03:49:40.351Z,1
2022-09-23T03:50:57.378Z,0
2022-09-23T03:52:14.342Z,1
2022-09-23T03:53:31.333Z,1
2022-09-23T03:54:48.321Z,0
2022-09-23T03:56:05.362Z,0
2022-09-23T03:57:22.354Z,1
2022-09-23T03:58:39.457Z,1
2022-09-23T03:59:56.357Z,1
2022-09-23T04:01:13.461Z,1
2022-09-23T04:02:30.437Z,1
2022-09-23T04:03:47.349Z,0
2022-09-23T04:05:04.425Z,0
2022-09-23T04:06:21.351Z,0
2022-09-23T04:07:38.426Z,0
2022-09-23T04:08:55.347Z,1
2022-09-23T04:10:12.356Z,1
2022-09-23T04:11:29.366Z,1
2022-09-23T04:12:46.398Z,4
2022-09-23T04:14:03.421Z,4
2022-09-23T04:15:20.385Z,3
2022-09-23T04:16:37.474Z,3
2022-09-23T04:17:54.365Z,4
2022-09-23T04:19:11.885Z,3
2022-09-23T04:20:28.403Z,3
2022-09-23T04:21:45.388Z,5
2022-09-23T04:23:02.381Z,5
2022-09-23T04:24:19.385Z,5
2022-09-23T04:25:36.394Z,4
2022-09-23T04:26:53.428Z,5
2022-09-23T04:28:10.384Z,5
2022-09-23T04:29:27.436Z,5
2022-09-23T04:30:44.399Z,6
2022-09-23T04:32:01.423Z,6
2022-09-23T04:33:18.367Z,8
2022-09-23T04:34:35.442Z,8
2022-09-23T04:35:52.428Z,10
2022-09-23T04:37:09.403Z,8
2022-09-23T04:38:26.435Z,8
2022-09-23T04:39:43.445Z,8
2022-09-23T04:41:00.392Z,8
2022-09-23T04:42:17.424Z,6
2022-09-23T04:43:34.432Z,5
2022-09-23T04:44:51.408Z,6
2022-09-23T04:46:08.491Z,8
2022-09-23T04:47:25.459Z,8
2022-09-23T04:48:42.441Z,8
2022-09-23T04:50:00.019Z,5
2022-09-23T04:51:16.496Z,6
2022-09-23T04:52:33.446Z,5
2022-09-23T04:53:50.406Z,8
2022-09-23T04:55:11.010Z,8
2022-09-23T04:56:24.428Z,8
2022-09-23T04:57:41.482Z,9
2022-09-23T04:58:58.549Z,11
2022-09-23T05:00:15.429Z,10
2022-09-23T05:01:32.638Z,9
2022-09-23T05:02:49.450Z,10
2022-09-23T05:04:06.479Z,11
2022-09-23T05:05:23.423Z,12
2022-09-23T05:06:40.470Z,10
2022-09-23T05:07:57.489Z,12
2022-09-23T05:09:14.422Z,12
2022-09-23T05:10:31.448Z,13
2022-09-23T05:11:48.439Z,13
2022-09-23T05:13:05.403Z,13
2022-09-23T05:14:22.703Z,12
2022-09-23T05:15:39.461Z,11
2022-09-23T05:16:56.453Z,12
2022-09-23T05:18:15.155Z,11
2022-09-23T05:19:30.477Z,12
2022-09-23T05:20:47.455Z,13
2022-09-23T05:22:05.562Z,14
2022-09-23T05:23:22.590Z,13
2022-09-23T05:24:39.480Z,12
2022-09-23T05:25:56.475Z,16
2022-09-23T05:27:13.463Z,17
2022-09-23T05:28:30.500Z,17
2022-09-23T05:29:47.460Z,16
2022-09-23T05:31:04.523Z,18
2022-09-23T05:32:21.461Z,18
2022-09-23T05:33:38.518Z,19
2022-09-23T05:34:55.464Z,20
2022-09-23T05:36:12.467Z,19
2022-09-23T05:37:29.494Z,23
2022-09-23T05:38:46.507Z,20
2022-09-23T05:40:03.598Z,19
2022-09-23T05:41:20.482Z,18
2022-09-23T05:42:37.522Z,19
2022-09-23T05:43:54.507Z,20
2022-09-23T05:45:11.499Z,33
2022-09-23T05:46:28.521Z,26
2022-09-23T05:47:45.523Z,14
2022-09-23T05:49:03.584Z,14
2022-09-23T05:50:19.497Z,17
2022-09-23T05:51:36.507Z,16
2022-09-23T05:52:53.546Z,19
2022-09-23T05:54:10.637Z,19
2022-09-23T05:55:27.520Z,20
2022-09-23T05:56:44.515Z,21
2022-09-23T05:58:01.588Z,24
2022-09-23T05:59:18.529Z,25
2022-09-23T06:00:35.505Z,27
2022-09-23T06:01:56.263Z,28
2022-09-23T06:03:09.677Z,29
2022-09-23T06:04:26.549Z,26
2022-09-23T06:05:43.535Z,25
2022-09-23T06:07:03.424Z,25
2022-09-23T06:08:17.555Z,26
2022-09-23T06:09:36.620Z,27
2022-09-23T06:10:54.263Z,25
2022-09-23T06:12:08.537Z,23
2022-09-23T06:13:25.589Z,22
2022-09-23T06:14:42.534Z,33
2022-09-23T06:15:59.587Z,33
2022-09-23T06:17:16.533Z,35
2022-09-23T06:18:33.560Z,35
2022-09-23T06:19:50.534Z,32
2022-09-23T06:21:07.543Z,31
2022-09-23T06:22:24.555Z,28
2022-09-23T06:23:42.086Z,26
2022-09-23T06:24:58.557Z,25
2022-09-23T06:26:15.600Z,24
2022-09-23T06:27:32.473Z,25
2022-09-23T06:28:49.447Z,25
2022-09-23T06:30:06.630Z,27
2022-09-23T06:31:23.487Z,29
2022-09-23T06:32:40.473Z,27
2022-09-23T06:34:07.129Z,26
2022-09-23T06:35:24.376Z,27
2022-09-23T06:36:41.803Z,27
2022-09-23T06:37:49.491Z,28
2022-09-23T06:39:06.570Z,28
2022-09-23T06:40:23.611Z,28
2022-09-23T06:41:40.559Z,25
2022-09-23T06:42:57.511Z,16
2022-09-23T06:44:14.518Z,18
2022-09-23T06:45:31.501Z,20
2022-09-23T06:46:48.672Z,17
2022-09-23T06:48:05.488Z,21
2022-09-23T06:49:22.725Z,17
2022-09-23T06:50:39.500Z,20
2022-09-23T06:51:57.418Z,20
2022-09-23T06:53:14.510Z,14
2022-09-23T06:54:32.621Z,18
2022-09-23T06:55:49.527Z,23
2022-09-23T06:57:06.567Z,23
2022-09-23T06:58:23.516Z,24
2022-09-23T06:59:40.493Z,23
2022-09-23T07:00:57.521Z,23
2022-09-23T07:02:14.645Z,23
2022-09-23T07:03:31.569Z,25
2022-09-23T07:04:48.598Z,24
2022-09-23T07:06:05.529Z,23
2022-09-23T07:07:22.530Z,21
2022-09-23T07:08:39.553Z,23
2022-09-23T07:09:57.387Z,23
2022-09-23T07:11:14.517Z,20
2022-09-23T07:12:31.579Z,21
2022-09-23T07:13:48.575Z,24
2022-09-23T07:15:05.585Z,21
2022-09-23T07:16:22.614Z,21
2022-09-23T07:17:39.557Z,23
2022-09-23T07:18:56.589Z,20
2022-09-23T07:20:13.576Z,20
2022-09-23T07:21:30.557Z,20
2022-09-23T07:22:47.559Z,24
2022-09-23T07:24:04.553Z,20
2022-09-23T07:25:21.624Z,24
2022-09-23T07:26:41.157Z,25
2022-09-23T07:27:55.619Z,26
2022-09-23T07:29:12.574Z,23
2022-09-23T07:30:29.603Z,21
2022-09-23T07:31:46.616Z,19
2022-09-23T07:33:08.045Z,19
2022-09-23T07:34:20.584Z,20
2022-09-23T07:35:37.568Z,22
2022-09-23T07:36:54.594Z,20
2022-09-23T07:38:11.591Z,19
2022-09-23T07:39:28.616Z,19
2022-09-23T07:40:46.490Z,20
2022-09-23T07:42:03.629Z,23
2022-09-23T07:43:20.580Z,21
2022-09-23T07:44:37.700Z,20
2022-09-23T07:45:54.677Z,18
2022-09-23T07:47:11.681Z,18
2022-09-23T07:48:31.992Z,14
2022-09-23T07:49:45.650Z,17
2022-09-23T07:51:02.633Z,19
2022-09-23T07:52:19.610Z,18
2022-09-23T07:53:36.598Z,16
2022-09-23T07:54:53.629Z,18
2022-09-23T07:56:10.705Z,14
2022-09-23T07:57:27.700Z,18
2022-09-23T07:58:44.620Z,20
2022-09-23T08:00:01.664Z,18
2022-09-23T08:01:18.816Z,16
2022-09-23T08:02:35.675Z,22
2022-09-23T08:03:52.662Z,18
2022-09-23T08:05:09.841Z,16
2022-09-23T08:06:26.652Z,16
2022-09-23T08:07:43.620Z,18
2022-09-23T08:09:00.737Z,18
2022-09-23T08:10:17.828Z,18
2022-09-23T08:11:34.715Z,18
2022-09-23T08:12:51.683Z,17
2022-09-23T08:14:08.634Z,16
2022-09-23T08:15:26.466Z,18
2022-09-23T08:16:43.693Z,19
2022-09-23T08:18:00.700Z,23
2022-09-23T08:19:17.763Z,24
2022-09-23T08:20:34.770Z,19
2022-09-23T08:21:52.553Z,19
2022-09-23T08:23:09.671Z,17
2022-09-23T08:24:26.657Z,16
2022-09-23T08:25:45.594Z,16
2022-09-23T08:27:00.744Z,16
2022-09-23T08:28:17.687Z,17
2022-09-23T08:29:34.728Z,18
2022-09-23T08:30:51.792Z,19
2022-09-23T08:32:08.763Z,24
2022-09-23T08:33:25.686Z,23
2022-09-23T08:34:42.682Z,23
2022-09-23T08:35:59.937Z,21
2022-09-23T08:37:17.444Z,21
2022-09-23T08:38:34.770Z,21
2022-09-23T08:39:52.674Z,21
2022-09-23T08:41:09.720Z,23
2022-09-23T08:42:26.705Z,23
2022-09-23T08:43:43.684Z,23
2022-09-23T08:45:00.683Z,20
2022-09-23T08:46:17.788Z,21
2022-09-23T08:47:34.967Z,23
2022-09-23T08:48:51.678Z,21
2022-09-23T08:50:08.718Z,23
2022-09-23T08:51:25.731Z,24
2022-09-23T08:52:42.722Z,24
2022-09-23T08:54:00.016Z,24
2022-09-23T08:55:16.710Z,20
2022-09-23T08:56:35.371Z,20
2022-09-23T08:58:08.165Z,20
2022-09-23T08:59:07.706Z,19
2022-09-23T09:00:25.563Z,17
2022-09-23T09:01:42.798Z,17
2022-09-23T09:02:59.734Z,17
2022-09-23T09:04:17.434Z,17
2022-09-23T09:05:34.768Z,16
2022-09-23T09:06:53.842Z,14
2022-09-23T09:08:08.720Z,16
2022-09-23T09:09:25.763Z,17
2022-09-23T09:10:42.729Z,19
2022-09-23T09:12:00.586Z,18
2022-09-23T09:13:17.757Z,18
2022-09-23T09:14:34.745Z,17
2022-09-23T09:15:54.832Z,13
2022-09-23T09:17:08.783Z,13
2022-09-23T09:18:25.848Z,10
2022-09-23T09:19:42.790Z,9
2022-09-23T09:20:59.754Z,9
2022-09-23T09:22:17.535Z,9
2022-09-23T09:23:34.836Z,11
2022-09-23T09:24:51.766Z,12
2022-09-23T09:26:08.749Z,14
2022-09-23T09:27:25.792Z,17
2022-09-23T09:28:42.794Z,17
2022-09-23T09:29:59.768Z,16
2022-09-23T09:31:16.870Z,13
2022-09-23T09:32:33.811Z,16
2022-09-23T09:33:50.791Z,19
2022-09-23T09:35:07.785Z,21
2022-09-23T09:36:25.810Z,19
2022-09-23T09:37:42.844Z,17
2022-09-23T09:38:59.857Z,19
2022-09-23T09:40:17.676Z,21
2022-09-23T09:41:34.843Z,23
2022-09-23T09:42:52.013Z,25
2022-09-23T09:44:08.848Z,27
2022-09-23T09:45:25.888Z,26
2022-09-23T09:46:42.859Z,25
2022-09-23T09:47:59.825Z,24
2022-09-23T09:49:16.828Z,21
2022-09-23T09:50:34.618Z,21
2022-09-23T09:51:52.771Z,21
2022-09-23T09:53:09.816Z,23
2022-09-23T09:54:26.781Z,20
2022-09-23T09:55:43.790Z,21
2022-09-23T09:57:00.840Z,23
2022-09-23T09:58:17.796Z,24
2022-09-23T09:59:34.816Z,24
2022-09-23T10:00:51.818Z,23
2022-09-23T10:02:08.773Z,20
2022-09-23T10:03:25.835Z,19
2022-09-23T10:04:43.050Z,19
2022-09-23T10:05:59.821Z,21
2022-09-23T10:07:16.785Z,20
2022-09-23T10:08:33.798Z,19
2022-09-23T10:09:50.805Z,17
2022-09-23T10:11:07.871Z,16
2022-09-23T10:12:24.795Z,18
2022-09-23T10:13:41.789Z,17
2022-09-23T10:14:59.365Z,14
2022-09-23T10:16:15.997Z,11
2022-09-23T10:17:32.878Z,10
2022-09-23T10:18:49.828Z,9
2022-09-23T10:20:06.827Z,10
2022-09-23T10:21:27.676Z,10
2022-09-23T10:22:40.818Z,9
2022-09-23T10:23:57.831Z,8
2022-09-23T10:25:14.859Z,12
2022-09-23T10:26:31.839Z,9
2022-09-23T10:27:48.868Z,6
2022-09-23T10:29:05.910Z,9
2022-09-23T10:30:23.267Z,10
2022-09-23T10:31:39.826Z,10
2022-09-23T10:32:56.888Z,12
2022-09-23T10:34:13.856Z,12
2022-09-23T10:35:30.860Z,12
2022-09-23T10:36:48.918Z,13
2022-09-23T10:38:05.833Z,13
2022-09-23T10:39:22.880Z,11
2022-09-23T10:40:40.217Z,8
2022-09-23T10:41:56.921Z,5
2022-09-23T10:43:13.839Z,6
2022-09-23T10:44:30.850Z,6
2022-09-23T10:45:47.964Z,9
2022-09-23T10:47:04.844Z,10
2022-09-23T10:48:21.878Z,11
2022-09-23T10:49:38.944Z,11
2022-09-23T10:50:55.886Z,10
2022-09-23T10:52:12.850Z,9
2022-09-23T10:53:29.943Z,8
2022-09-23T10:54:46.914Z,8
2022-09-23T10:56:03.861Z,6
2022-09-23T10:57:20.867Z,6
2022-09-23T10:58:38.652Z,5
2022-09-23T10:59:55.952Z,6
2022-09-23T11:01:13.057Z,6
2022-09-23T11:02:29.932Z,10
2022-09-23T11:03:46.900Z,9
2022-09-23T11:05:04.013Z,9
2022-09-23T11:06:20.906Z,8
2022-09-23T11:07:37.954Z,8
2022-09-23T11:08:54.899Z,6
2022-09-23T11:10:23.130Z,6
2022-09-23T11:11:28.894Z,8
2022-09-23T11:12:45.965Z,8
2022-09-23T11:14:02.924Z,8
2022-09-23T11:15:19.942Z,8
2022-09-23T11:16:37.048Z,8
2022-09-23T11:17:54.422Z,6
2022-09-23T11:19:10.904Z,9
2022-09-23T11:20:28.670Z,11
2022-09-23T11:21:46.000Z,12
2022-09-23T11:23:03.583Z,9
2022-09-23T11:24:20.933Z,11
2022-09-23T11:25:38.018Z,14
2022-09-23T11:26:54.964Z,16
2022-09-23T11:28:11.950Z,13
2022-09-23T11:29:29.006Z,14
2022-09-23T11:30:46.019Z,13
2022-09-23T11:32:03.058Z,12
2022-09-23T11:33:20.030Z,11
2022-09-23T11:34:36.991Z,11
2022-09-23T11:35:53.990Z,10
2022-09-23T11:37:10.949Z,8
2022-09-23T11:38:27.987Z,10
2022-09-23T11:39:44.970Z,13
2022-09-23T11:41:02.042Z,17
2022-09-23T11:42:18.974Z,18
2022-09-23T11:43:36.043Z,12
2022-09-23T11:44:52.994Z,13
2022-09-23T11:46:10.181Z,11
2022-09-23T11:47:27.027Z,11
2022-09-23T11:48:44.046Z,12
2022-09-23T11:50:00.970Z,5
2022-09-23T11:51:19.160Z,3
2022-09-23T11:52:35.980Z,0
2022-09-23T11:53:52.994Z,0
2022-09-23T11:55:19.149Z,0
2022-09-23T11:56:34.488Z,0
2022-09-23T11:57:48.786Z,2
2022-09-23T11:59:01.105Z,4
2022-09-23T12:00:18.073Z,5
2022-09-23T12:01:37.785Z,5
2022-09-23T12:03:01.219Z,6
2022-09-23T12:04:18.220Z,6
2022-09-23T12:05:26.245Z,9
2022-09-23T12:06:43.028Z,8
2022-09-23T12:08:00.008Z,6
2022-09-23T12:09:17.079Z,8
2022-09-23T12:10:34.021Z,10
2022-09-23T12:11:51.018Z,11
2022-09-23T12:13:08.021Z,10
2022-09-23T12:14:25.057Z,9
2022-09-23T12:15:42.085Z,10
2022-09-23T12:16:59.063Z,12
2022-09-23T12:18:19.606Z,14
2022-09-23T12:19:33.156Z,12
2022-09-23T12:20:50.030Z,12
2022-09-23T12:22:07.035Z,11
2022-09-23T12:23:24.044Z,9
2022-09-23T12:24:41.122Z,10
2022-09-23T12:25:58.070Z,9
2022-09-23T12:27:15.063Z,11
2022-09-23T12:28:32.062Z,10
2022-09-23T12:29:49.054Z,11
2022-09-23T12:31:07.166Z,8
2022-09-23T12:32:24.087Z,8
2022-09-23T12:33:41.090Z,5
2022-09-23T12:34:58.134Z,6
2022-09-23T12:36:15.088Z,5
2022-09-23T12:37:32.069Z,8
2022-09-23T12:38:49.077Z,6
2022-09-23T12:40:06.239Z,5
2022-09-23T12:41:23.131Z,6
2022-09-23T12:42:40.098Z,5
2022-09-23T12:43:57.115Z,3
2022-09-23T12:45:14.081Z,4
2022-09-23T12:46:31.069Z,6
2022-09-23T12:47:48.141Z,5
2022-09-23T12:49:05.125Z,3
2022-09-23T12:50:24.327Z,3
2022-09-23T12:51:39.075Z,4
2022-09-23T12:52:56.150Z,5
2022-09-23T12:54:13.081Z,8
2022-09-23T12:55:30.097Z,9
2022-09-23T12:56:47.096Z,10
2022-09-23T12:58:04.165Z,12
2022-09-23T12:59:21.102Z,11
2022-09-23T13:00:38.155Z,10
2022-09-23T13:01:55.223Z,8
2022-09-23T13:03:12.186Z,3
2022-09-23T13:04:29.156Z,1
2022-09-23T13:05:46.135Z,0
2022-09-23T13:07:03.326Z,0
2022-09-23T13:08:20.164Z,0
2022-09-23T13:09:37.155Z,0
2022-09-23T13:10:54.173Z,0
2022-09-23T13:12:11.187Z,0
2022-09-23T13:13:28.136Z,0
2022-09-23T13:14:45.141Z,0
2022-09-23T13:16:02.287Z,0
2022-09-23T13:17:19.138Z,0
2022-09-23T13:18:36.145Z,0
2022-09-23T13:19:53.174Z,0
2022-09-23T13:21:10.283Z,0
2022-09-23T13:22:27.197Z,0
2022-09-23T13:23:44.187Z,0
2022-09-23T13:25:01.154Z,0
2022-09-23T13:26:18.664Z,1
2022-09-23T13:27:35.163Z,2
2022-09-23T13:28:52.179Z,3
2022-09-23T13:30:09.211Z,4
2022-09-23T13:31:26.224Z,4
2022-09-23T13:32:43.197Z,4
2022-09-23T13:34:00.279Z,5
2022-09-23T13:35:17.204Z,8
2022-09-23T13:36:34.159Z,10
2022-09-23T13:37:51.178Z,12
2022-09-23T13:39:08.205Z,12
2022-09-23T13:40:25.238Z,10
2022-09-23T13:41:42.184Z,10
2022-09-23T13:42:59.207Z,9
2022-09-23T13:44:16.181Z,6
2022-09-23T13:45:33.279Z,4
2022-09-23T13:46:50.183Z,6
2022-09-23T13:48:07.226Z,9
2022-09-23T13:49:24.192Z,10
2022-09-23T13:50:41.244Z,8
2022-09-23T13:51:58.214Z,6
2022-09-23T13:53:15.208Z,5
2022-09-23T13:54:32.212Z,5
2022-09-23T13:55:52.416Z,8
2022-09-23T13:57:06.258Z,10
2022-09-23T13:58:23.202Z,12
2022-09-23T13:59:40.234Z,12
2022-09-23T14:00:57.259Z,13
2022-09-23T14:02:14.275Z,13
2022-09-23T14:03:35.320Z,14
2022-09-23T14:04:48.259Z,16
2022-09-23T14:06:05.250Z,16
2022-09-23T14:07:22.248Z,11
2022-09-23T14:08:39.236Z,6
2022-09-23T14:09:56.268Z,2
2022-09-23T14:11:13.245Z,2
2022-09-23T14:12:30.303Z,0
2022-09-23T14:13:47.364Z,0
2022-09-23T14:15:04.433Z,0
2022-09-23T14:16:21.326Z,0
2022-09-23T14:17:38.419Z,0
2022-09-23T14:18:55.260Z,0
2022-09-23T14:20:12.298Z,1
2022-09-23T14:21:30.326Z,2
2022-09-23T14:22:47.311Z,3
2022-09-23T14:24:04.298Z,3
2022-09-23T14:25:21.274Z,3
2022-09-23T14:26:38.757Z,2
2022-09-23T14:27:58.538Z,2
2022-09-23T14:29:12.359Z,1
2022-09-23T14:30:29.399Z,1
2022-09-23T14:31:47.768Z,1
2022-09-23T14:33:08.579Z,0
2022-09-23T14:34:22.331Z,0
2022-09-23T14:35:39.272Z,1
2022-09-23T14:36:56.416Z,3
2022-09-23T14:38:13.272Z,5
2022-09-23T14:39:30.313Z,6
2022-09-23T14:40:47.316Z,8
2022-09-23T14:42:04.365Z,8
2022-09-23T14:43:21.326Z,6
2022-09-23T14:44:38.304Z,8
2022-09-23T14:45:55.355Z,10
2022-09-23T14:47:12.447Z,12
2022-09-23T14:48:29.551Z,12
2022-09-23T14:49:46.807Z,11
2022-09-23T14:51:03.399Z,12
2022-09-23T14:52:20.358Z,13
2022-09-23T14:53:37.407Z,12
2022-09-23T14:54:54.318Z,13
2022-09-23T14:56:11.330Z,12
2022-09-23T14:57:28.469Z,11
2022-09-23T14:58:49.594Z,9
2022-09-23T15:00:02.774Z,6
2022-09-23T15:01:21.074Z,5
2022-09-23T15:02:39.007Z,5
2022-09-23T15:03:56.728Z,10
2022-09-23T15:05:14.428Z,5
2022-09-23T15:06:32.121Z,2
2022-09-23T15:07:49.849Z,4
2022-09-23T15:09:07.429Z,3
2022-09-23T15:10:24.334Z,4
2022-09-23T15:11:41.432Z,3
2022-09-23T15:12:58.385Z,5
2022-09-23T15:14:36.453Z,1
2022-09-23T15:15:32.352Z,1
2022-09-23T15:16:49.439Z,2
2022-09-23T15:18:06.354Z,2
2022-09-23T15:19:23.744Z,5
2022-09-23T15:20:40.341Z,11
2022-09-23T15:21:57.460Z,3
2022-09-23T15:23:14.441Z,2
2022-09-23T15:24:31.369Z,12
2022-09-23T15:25:48.409Z,6
2022-09-23T15:27:05.404Z,4
2022-09-23T15:28:22.409Z,2
2022-09-23T15:29:39.366Z,1
2022-09-23T15:30:56.428Z,1
2022-09-23T15:32:13.381Z,0
2022-09-23T15:33:30.420Z,0
2022-09-23T15:34:47.399Z,0
2022-09-23T15:36:04.384Z,3
2022-09-23T15:37:21.414Z,4
2022-09-23T15:38:38.504Z,3
2022-09-23T15:39:55.402Z,1
2022-09-23T15:41:12.399Z,0
2022-09-23T15:42:29.391Z,0
2022-09-23T15:43:46.435Z,0
2022-09-23T15:45:03.513Z,0
2022-09-23T15:46:20.535Z,0
2022-09-23T15:47:37.409Z,0
2022-09-23T15:48:58.409Z,0
2022-09-23T15:50:11.415Z,2
2022-09-23T15:51:28.450Z,2
2022-09-23T15:52:45.447Z,2
2022-09-23T15:54:02.610Z,2
2022-09-23T15:55:19.419Z,3
2022-09-23T15:56:36.486Z,4
2022-09-23T15:57:53.467Z,4
2022-09-23T15:59:10.423Z,5
2022-09-23T16:00:27.480Z,5
2022-09-23T16:01:44.536Z,5
2022-09-23T16:03:01.473Z,5
2022-09-23T16:04:18.463Z,4
2022-09-23T16:05:35.433Z,4
2022-09-23T16:06:52.443Z,5
2022-09-23T16:08:09.711Z,5
2022-09-23T16:09:26.515Z,5
2022-09-23T16:10:43.456Z,5
2022-09-23T16:12:00.498Z,8
2022-09-23T16:13:17.474Z,10
2022-09-23T16:14:34.456Z,5
2022-09-23T16:15:51.450Z,5
2022-09-23T16:17:08.487Z,4
2022-09-23T16:18:25.472Z,5
2022-09-23T16:19:42.461Z,8
2022-09-23T16:20:59.530Z,8
2022-09-23T16:22:16.502Z,9
2022-09-23T16:23:33.806Z,10
2022-09-23T16:24:50.665Z,13
2022-09-23T16:26:07.494Z,20
2022-09-23T16:27:24.573Z,36
2022-09-23T16:28:41.503Z,47
2022-09-23T16:29:58.486Z,50
2022-09-23T16:31:15.598Z,44
2022-09-23T16:32:32.509Z,48
2022-09-23T16:33:49.543Z,46
2022-09-23T16:35:06.485Z,33
2022-09-23T16:36:23.531Z,25
2022-09-23T16:37:40.487Z,18
2022-09-23T16:38:57.536Z,26
2022-09-23T16:40:14.687Z,27
2022-09-23T16:41:31.557Z,23
2022-09-23T16:42:48.518Z,20
2022-09-23T16:44:05.510Z,20
2022-09-23T16:45:22.533Z,19
2022-09-23T16:46:39.501Z,46
2022-09-23T16:47:56.571Z,34
2022-09-23T16:49:13.525Z,39
2022-09-23T16:50:30.567Z,44
2022-09-23T16:51:47.531Z,50
2022-09-23T16:53:04.562Z,50
2022-09-23T16:54:21.511Z,49
2022-09-23T16:55:38.584Z,48
2022-09-23T16:56:55.534Z,48
2022-09-23T16:58:12.599Z,48
2022-09-23T16:59:29.554Z,51
2022-09-23T17:00:46.649Z,52
2022-09-23T17:02:03.711Z,56
2022-09-23T17:03:20.571Z,132
2022-09-23T17:04:37.625Z,155
2022-09-23T17:05:54.602Z,152
2022-09-23T17:07:11.534Z,165
2022-09-23T17:08:28.539Z,170
2022-09-23T17:09:45.602Z,164
2022-09-23T17:11:02.620Z,156
2022-09-23T17:12:19.540Z,175
2022-09-23T17:13:36.567Z,127
2022-09-23T17:14:53.586Z,117
2022-09-23T17:16:10.706Z,128
2022-09-23T17:17:27.595Z,106
2022-09-23T17:18:44.548Z,88
2022-09-23T17:20:01.586Z,87
2022-09-23T17:21:18.582Z,82
2022-09-23T17:22:35.564Z,73
2022-09-23T17:23:52.591Z,72
2022-09-23T17:25:09.597Z,74
2022-09-23T17:26:26.597Z,71
2022-09-23T17:27:43.588Z,74
2022-09-23T17:29:00.588Z,67
2022-09-23T17:30:17.630Z,59
2022-09-23T17:31:34.674Z,41
2022-09-23T17:32:51.578Z,40
2022-09-23T17:34:08.628Z,46
2022-09-23T17:35:25.603Z,48
2022-09-23T17:36:42.619Z,49
2022-09-23T17:37:59.583Z,48
2022-09-23T17:39:16.586Z,44
2022-09-23T17:40:33.647Z,33
2022-09-23T17:41:50.628Z,31
2022-09-23T17:43:07.607Z,32
2022-09-23T17:44:24.624Z,32
2022-09-23T17:45:41.718Z,34
2022-09-23T17:46:58.672Z,35
2022-09-23T17:48:15.625Z,39
2022-09-23T17:49:32.608Z,40
2022-09-23T17:50:49.625Z,40
2022-09-23T17:52:06.810Z,40
2022-09-23T17:53:23.664Z,37
2022-09-23T17:54:40.653Z,36
2022-09-23T17:55:57.674Z,37
2022-09-23T17:57:14.658Z,37
2022-09-23T17:58:31.703Z,39
2022-09-23T17:59:48.624Z,42
2022-09-23T18:01:05.859Z,47
2022-09-23T18:02:22.831Z,49
2022-09-23T18:03:39.997Z,47
2022-09-23T18:04:57.350Z,52
2022-09-23T18:06:14.702Z,59
2022-09-23T18:07:31.631Z,66
2022-09-23T18:08:48.645Z,67
2022-09-23T18:10:05.831Z,79
2022-09-23T18:11:22.695Z,97
2022-09-23T18:12:39.670Z,143
2022-09-23T18:13:57.718Z,172
2022-09-23T18:15:18.139Z,161
2022-09-23T18:16:31.818Z,140
2022-09-23T18:17:48.640Z,124
2022-09-23T18:19:05.752Z,124
2022-09-23T18:20:23.296Z,125
2022-09-23T18:21:40.696Z,126
2022-09-23T18:22:57.671Z,127
2022-09-23T18:24:31.690Z,125
2022-09-23T18:25:40.047Z,125
2022-09-23T18:26:49.874Z,127
2022-09-23T18:28:07.017Z,126
2022-09-23T18:29:23.768Z,128
2022-09-23T18:30:40.743Z,129
2022-09-23T18:31:57.744Z,178
2022-09-23T18:33:14.741Z,163
2022-09-23T18:34:31.860Z,166
2022-09-23T18:35:48.691Z,179
2022-09-23T18:37:14.954Z,165
2022-09-23T18:38:24.800Z,161
2022-09-23T18:39:41.758Z,162
2022-09-23T18:40:59.101Z,170